sensor_id;sensor_type;location;lat;lon;timestamp;P1;durP1;ratioP1;P2;durP2;ratioP2
47603;SDS011;33326;51.116;6.900;2022-12-18T00:00:07;17.65;;;8.93;;
47603;SDS011;33326;51.116;6.900;2022-12-18T00:05:16;18.75;;;10.40;;
47603;SDS011;33326;51.116;6.900;2022-12-18T00:10:18;17.92;;;9.30;;
47603;SDS011;33326;51.116;6.900;2022-12-18T00:15:20;20.52;;;9.55;;
47603;SDS011;33326;51.116;6.900;2022-12-18T00:20:25;21.33;;;9.60;;
47603;SDS011;33326;51.116;6.900;2022-12-18T00:25:37;17.83;;;9.38;;
47603;SDS011;33326;51.116;6.900;2022-12-18T00:30:42;16.92;;;8.95;;
47603;SDS011;33326;51.116;6.900;2022-12-18T00:35:45;20.15;;;9.50;;
47603;SDS011;33326;51.116;6.900;2022-12-18T00:40:47;18.65;;;9.60;;
47603;SDS011;33326;51.116;6.900;2022-12-18T00:45:50;20.80;;;9.75;;
47603;SDS011;33326;51.116;6.900;2022-12-18T00:50:53;18.77;;;9.20;;
47603;SDS011;33326;51.116;6.900;2022-12-18T00:55:55;18.63;;;8.93;;
47603;SDS011;33326;51.116;6.900;2022-12-18T01:01:02;20.00;;;9.27;;
47603;SDS011;33326;51.116;6.900;2022-12-18T01:06:10;19.27;;;9.38;;
47603;SDS011;33326;51.116;6.900;2022-12-18T01:11:14;16.98;;;8.85;;
47603;SDS011;33326;51.116;6.900;2022-12-18T01:16:17;17.83;;;9.68;;
47603;SDS011;33326;51.116;6.900;2022-12-18T01:21:22;19.80;;;10.20;;
47603;SDS011;33326;51.116;6.900;2022-12-18T01:26:27;21.02;;;9.63;;
47603;SDS011;33326;51.116;6.900;2022-12-18T01:31:31;21.40;;;10.05;;
47603;SDS011;33326;51.116;6.900;2022-12-18T01:36:38;17.75;;;8.95;;
47603;SDS011;33326;51.116;6.900;2022-12-18T01:41:40;17.88;;;9.70;;
47603;SDS011;33326;51.116;6.900;2022-12-18T01:46:59;21.17;;;10.20;;
47603;SDS011;33326;51.116;6.900;2022-12-18T01:52:03;17.50;;;8.85;;
47603;SDS011;33326;51.116;6.900;2022-12-18T01:57:05;18.65;;;9.80;;
47603;SDS011;33326;51.116;6.900;2022-12-18T02:02:07;17.58;;;8.98;;
47603;SDS011;33326;51.116;6.900;2022-12-18T02:07:11;18.25;;;8.88;;
47603;SDS011;33326;51.116;6.900;2022-12-18T02:12:25;20.10;;;10.02;;
47603;SDS011;33326;51.116;6.900;2022-12-18T02:17:34;20.23;;;10.20;;
47603;SDS011;33326;51.116;6.900;2022-12-18T02:22:43;17.52;;;9.05;;
47603;SDS011;33326;51.116;6.900;2022-12-18T02:27:52;21.48;;;9.45;;
47603;SDS011;33326;51.116;6.900;2022-12-18T02:32:58;21.00;;;9.48;;
47603;SDS011;33326;51.116;6.900;2022-12-18T02:38:05;18.15;;;9.18;;
47603;SDS011;33326;51.116;6.900;2022-12-18T02:43:14;18.65;;;9.00;;
47603;SDS011;33326;51.116;6.900;2022-12-18T02:48:24;20.70;;;9.68;;
47603;SDS011;33326;51.116;6.900;2022-12-18T02:53:31;18.27;;;8.75;;
47603;SDS011;33326;51.116;6.900;2022-12-18T02:58:42;15.68;;;8.43;;
47603;SDS011;33326;51.116;6.900;2022-12-18T03:04:02;15.52;;;8.13;;
47603;SDS011;33326;51.116;6.900;2022-12-18T03:09:09;19.17;;;8.88;;
47603;SDS011;33326;51.116;6.900;2022-12-18T03:14:18;17.17;;;9.07;;
47603;SDS011;33326;51.116;6.900;2022-12-18T03:19:24;16.33;;;8.57;;
47603;SDS011;33326;51.116;6.900;2022-12-18T03:24:32;16.80;;;8.02;;
47603;SDS011;33326;51.116;6.900;2022-12-18T03:29:42;17.30;;;8.15;;
47603;SDS011;33326;51.116;6.900;2022-12-18T03:34:50;16.52;;;7.72;;
47603;SDS011;33326;51.116;6.900;2022-12-18T03:39:56;17.17;;;8.65;;
47603;SDS011;33326;51.116;6.900;2022-12-18T03:45:02;17.45;;;8.38;;
47603;SDS011;33326;51.116;6.900;2022-12-18T03:50:10;15.70;;;8.60;;
47603;SDS011;33326;51.116;6.900;2022-12-18T03:55:20;18.73;;;8.68;;
47603;SDS011;33326;51.116;6.900;2022-12-18T04:00:31;12.70;;;6.40;;
47603;SDS011;33326;51.116;6.900;2022-12-18T04:05:41;16.70;;;8.60;;
47603;SDS011;33326;51.116;6.900;2022-12-18T04:10:48;19.33;;;8.82;;
47603;SDS011;33326;51.116;6.900;2022-12-18T04:15:53;16.63;;;9.30;;
47603;SDS011;33326;51.116;6.900;2022-12-18T04:20:57;18.70;;;9.15;;
47603;SDS011;33326;51.116;6.900;2022-12-18T04:25:59;17.85;;;9.27;;
47603;SDS011;33326;51.116;6.900;2022-12-18T04:31:30;18.70;;;8.80;;
47603;SDS011;33326;51.116;6.900;2022-12-18T04:36:32;17.25;;;8.65;;
47603;SDS011;33326;51.116;6.900;2022-12-18T04:41:34;18.42;;;9.30;;
47603;SDS011;33326;51.116;6.900;2022-12-18T04:46:39;14.52;;;7.88;;
47603;SDS011;33326;51.116;6.900;2022-12-18T04:51:41;17.77;;;8.30;;
47603;SDS011;33326;51.116;6.900;2022-12-18T04:56:43;15.73;;;7.93;;
47603;SDS011;33326;51.116;6.900;2022-12-18T05:01:47;18.13;;;7.45;;
47603;SDS011;33326;51.116;6.900;2022-12-18T05:06:55;17.25;;;7.93;;
47603;SDS011;33326;51.116;6.900;2022-12-18T05:11:58;15.70;;;7.22;;
47603;SDS011;33326;51.116;6.900;2022-12-18T05:17:01;14.43;;;8.00;;
47603;SDS011;33326;51.116;6.900;2022-12-18T05:22:03;14.55;;;7.13;;
47603;SDS011;33326;51.116;6.900;2022-12-18T05:27:08;15.57;;;8.27;;
47603;SDS011;33326;51.116;6.900;2022-12-18T05:32:11;16.45;;;7.55;;
47603;SDS011;33326;51.116;6.900;2022-12-18T05:37:13;14.85;;;7.40;;
47603;SDS011;33326;51.116;6.900;2022-12-18T05:42:15;16.63;;;8.32;;
47603;SDS011;33326;51.116;6.900;2022-12-18T05:47:19;15.20;;;7.45;;
47603;SDS011;33326;51.116;6.900;2022-12-18T05:52:21;14.27;;;7.43;;
47603;SDS011;33326;51.116;6.900;2022-12-18T05:57:23;14.50;;;7.70;;
47603;SDS011;33326;51.116;6.900;2022-12-18T06:02:27;16.17;;;7.97;;
47603;SDS011;33326;51.116;6.900;2022-12-18T06:07:31;17.73;;;8.32;;
47603;SDS011;33326;51.116;6.900;2022-12-18T06:12:33;14.93;;;6.97;;
47603;SDS011;33326;51.116;6.900;2022-12-18T06:17:37;15.70;;;8.23;;
47603;SDS011;33326;51.116;6.900;2022-12-18T06:22:38;15.73;;;7.70;;
47603;SDS011;33326;51.116;6.900;2022-12-18T06:27:43;16.23;;;8.30;;
47603;SDS011;33326;51.116;6.900;2022-12-18T06:32:46;17.67;;;8.13;;
47603;SDS011;33326;51.116;6.900;2022-12-18T06:37:49;20.48;;;8.82;;
47603;SDS011;33326;51.116;6.900;2022-12-18T06:42:51;16.45;;;8.15;;
47603;SDS011;33326;51.116;6.900;2022-12-18T06:47:55;18.50;;;9.35;;
47603;SDS011;33326;51.116;6.900;2022-12-18T06:52:57;21.10;;;9.10;;
47603;SDS011;33326;51.116;6.900;2022-12-18T06:57:59;17.58;;;8.70;;
47603;SDS011;33326;51.116;6.900;2022-12-18T07:03:03;14.73;;;7.60;;
47603;SDS011;33326;51.116;6.900;2022-12-18T07:08:05;15.80;;;8.18;;
47603;SDS011;33326;51.116;6.900;2022-12-18T07:13:07;17.75;;;9.50;;
47603;SDS011;33326;51.116;6.900;2022-12-18T07:18:10;16.45;;;8.48;;
47603;SDS011;33326;51.116;6.900;2022-12-18T07:23:12;17.23;;;8.40;;
47603;SDS011;33326;51.116;6.900;2022-12-18T07:28:14;18.27;;;8.65;;
47603;SDS011;33326;51.116;6.900;2022-12-18T07:33:18;16.63;;;9.13;;
47603;SDS011;33326;51.116;6.900;2022-12-18T07:38:20;20.70;;;9.70;;
47603;SDS011;33326;51.116;6.900;2022-12-18T07:43:23;17.90;;;8.75;;
47603;SDS011;33326;51.116;6.900;2022-12-18T07:48:26;18.73;;;9.50;;
47603;SDS011;33326;51.116;6.900;2022-12-18T07:53:29;20.60;;;9.27;;
47603;SDS011;33326;51.116;6.900;2022-12-18T07:58:33;19.45;;;10.30;;
47603;SDS011;33326;51.116;6.900;2022-12-18T08:03:37;21.75;;;10.63;;
47603;SDS011;33326;51.116;6.900;2022-12-18T08:08:42;20.85;;;10.27;;
47603;SDS011;33326;51.116;6.900;2022-12-18T08:13:44;19.55;;;9.18;;
47603;SDS011;33326;51.116;6.900;2022-12-18T08:18:48;21.85;;;10.30;;
47603;SDS011;33326;51.116;6.900;2022-12-18T08:23:50;20.20;;;10.32;;
47603;SDS011;33326;51.116;6.900;2022-12-18T08:28:56;19.38;;;9.90;;
47603;SDS011;33326;51.116;6.900;2022-12-18T08:34:02;19.88;;;10.35;;
47603;SDS011;33326;51.116;6.900;2022-12-18T08:39:05;22.77;;;10.15;;
47603;SDS011;33326;51.116;6.900;2022-12-18T08:44:07;20.58;;;9.27;;
47603;SDS011;33326;51.116;6.900;2022-12-18T08:49:35;15.53;;;7.63;;
47603;SDS011;33326;51.116;6.900;2022-12-18T08:54:40;20.30;;;9.48;;
47603;SDS011;33326;51.116;6.900;2022-12-18T08:59:42;21.73;;;10.25;;
47603;SDS011;33326;51.116;6.900;2022-12-18T09:04:47;20.50;;;9.50;;
47603;SDS011;33326;51.116;6.900;2022-12-18T09:09:50;18.10;;;9.57;;
47603;SDS011;33326;51.116;6.900;2022-12-18T09:14:52;18.80;;;9.60;;
47603;SDS011;33326;51.116;6.900;2022-12-18T09:19:59;22.13;;;10.15;;
47603;SDS011;33326;51.116;6.900;2022-12-18T09:25:06;17.55;;;9.85;;
47603;SDS011;33326;51.116;6.900;2022-12-18T09:30:09;20.67;;;10.00;;
47603;SDS011;33326;51.116;6.900;2022-12-18T09:35:16;19.85;;;9.40;;
47603;SDS011;33326;51.116;6.900;2022-12-18T09:40:20;16.67;;;8.68;;
47603;SDS011;33326;51.116;6.900;2022-12-18T09:45:25;18.60;;;9.65;;
47603;SDS011;33326;51.116;6.900;2022-12-18T09:50:30;20.08;;;10.00;;
47603;SDS011;33326;51.116;6.900;2022-12-18T09:55:39;20.17;;;9.45;;
47603;SDS011;33326;51.116;6.900;2022-12-18T10:00:46;19.45;;;9.63;;
47603;SDS011;33326;51.116;6.900;2022-12-18T10:05:58;18.25;;;9.65;;
47603;SDS011;33326;51.116;6.900;2022-12-18T10:11:20;19.50;;;10.45;;
47603;SDS011;33326;51.116;6.900;2022-12-18T10:16:30;18.85;;;10.13;;
47603;SDS011;33326;51.116;6.900;2022-12-18T10:21:45;20.50;;;10.68;;
47603;SDS011;33326;51.116;6.900;2022-12-18T10:26:54;17.25;;;8.75;;
47603;SDS011;33326;51.116;6.900;2022-12-18T10:32:14;17.30;;;9.18;;
47603;SDS011;33326;51.116;6.900;2022-12-18T10:37:34;18.73;;;9.43;;
47603;SDS011;33326;51.116;6.900;2022-12-18T10:42:36;16.60;;;8.90;;
47603;SDS011;33326;51.116;6.900;2022-12-18T10:47:41;20.05;;;9.40;;
47603;SDS011;33326;51.116;6.900;2022-12-18T10:52:48;17.30;;;9.38;;
47603;SDS011;33326;51.116;6.900;2022-12-18T11:03:30;20.55;;;9.85;;
47603;SDS011;33326;51.116;6.900;2022-12-18T11:08:37;19.17;;;9.35;;
47603;SDS011;33326;51.116;6.900;2022-12-18T11:13:39;18.00;;;9.27;;
47603;SDS011;33326;51.116;6.900;2022-12-18T11:18:41;20.42;;;10.77;;
47603;SDS011;33326;51.116;6.900;2022-12-18T11:23:46;14.68;;;8.65;;
47603;SDS011;33326;51.116;6.900;2022-12-18T11:28:51;20.10;;;10.02;;
47603;SDS011;33326;51.116;6.900;2022-12-18T11:34:10;18.63;;;10.25;;
47603;SDS011;33326;51.116;6.900;2022-12-18T11:39:17;19.05;;;10.63;;
47603;SDS011;33326;51.116;6.900;2022-12-18T11:44:25;21.50;;;10.40;;
47603;SDS011;33326;51.116;6.900;2022-12-18T11:49:32;21.95;;;10.85;;
47603;SDS011;33326;51.116;6.900;2022-12-18T11:54:36;20.17;;;10.48;;
47603;SDS011;33326;51.116;6.900;2022-12-18T11:59:40;16.65;;;10.27;;
47603;SDS011;33326;51.116;6.900;2022-12-18T12:05:00;21.48;;;10.90;;
47603;SDS011;33326;51.116;6.900;2022-12-18T12:10:22;21.67;;;12.10;;
47603;SDS011;33326;51.116;6.900;2022-12-18T12:15:34;22.02;;;11.27;;
47603;SDS011;33326;51.116;6.900;2022-12-18T12:20:47;21.00;;;11.40;;
47603;SDS011;33326;51.116;6.900;2022-12-18T12:25:57;21.15;;;10.93;;
47603;SDS011;33326;51.116;6.900;2022-12-18T12:31:05;22.75;;;11.48;;
47603;SDS011;33326;51.116;6.900;2022-12-18T12:36:17;20.10;;;10.68;;
47603;SDS011;33326;51.116;6.900;2022-12-18T12:41:30;29.70;;;12.85;;
47603;SDS011;33326;51.116;6.900;2022-12-18T12:46:54;23.33;;;12.02;;
47603;SDS011;33326;51.116;6.900;2022-12-18T12:52:00;22.35;;;12.18;;
47603;SDS011;33326;51.116;6.900;2022-12-18T12:57:08;24.80;;;13.10;;
47603;SDS011;33326;51.116;6.900;2022-12-18T13:02:18;24.50;;;13.90;;
47603;SDS011;33326;51.116;6.900;2022-12-18T13:07:26;23.42;;;12.95;;
47603;SDS011;33326;51.116;6.900;2022-12-18T13:12:35;24.90;;;14.07;;
47603;SDS011;33326;51.116;6.900;2022-12-18T13:18:11;25.52;;;13.70;;
47603;SDS011;33326;51.116;6.900;2022-12-18T13:23:19;23.30;;;13.25;;
47603;SDS011;33326;51.116;6.900;2022-12-18T13:33:53;24.50;;;13.80;;
47603;SDS011;33326;51.116;6.900;2022-12-18T13:44:37;27.05;;;14.35;;
47603;SDS011;33326;51.116;6.900;2022-12-18T13:49:42;27.38;;;14.82;;
47603;SDS011;33326;51.116;6.900;2022-12-18T13:54:47;26.38;;;14.98;;
47603;SDS011;33326;51.116;6.900;2022-12-18T13:59:53;26.88;;;14.15;;
47603;SDS011;33326;51.116;6.900;2022-12-18T14:04:57;26.23;;;14.60;;
47603;SDS011;33326;51.116;6.900;2022-12-18T14:09:59;30.42;;;15.32;;
47603;SDS011;33326;51.116;6.900;2022-12-18T14:15:05;29.25;;;15.00;;
47603;SDS011;33326;51.116;6.900;2022-12-18T14:20:14;33.70;;;14.70;;
47603;SDS011;33326;51.116;6.900;2022-12-18T14:25:19;30.50;;;15.32;;
47603;SDS011;33326;51.116;6.900;2022-12-18T14:30:28;28.13;;;14.75;;
47603;SDS011;33326;51.116;6.900;2022-12-18T14:35:32;26.83;;;14.57;;
47603;SDS011;33326;51.116;6.900;2022-12-18T14:40:35;28.67;;;15.75;;
47603;SDS011;33326;51.116;6.900;2022-12-18T14:45:39;29.08;;;14.98;;
47603;SDS011;33326;51.116;6.900;2022-12-18T14:50:43;28.77;;;16.08;;
47603;SDS011;33326;51.116;6.900;2022-12-18T14:55:46;28.52;;;15.77;;
47603;SDS011;33326;51.116;6.900;2022-12-18T15:00:50;31.05;;;16.23;;
47603;SDS011;33326;51.116;6.900;2022-12-18T15:05:52;31.52;;;16.13;;
47603;SDS011;33326;51.116;6.900;2022-12-18T15:10:54;27.45;;;15.30;;
47603;SDS011;33326;51.116;6.900;2022-12-18T15:15:58;30.42;;;16.40;;
47603;SDS011;33326;51.116;6.900;2022-12-18T15:21:07;29.90;;;15.82;;
47603;SDS011;33326;51.116;6.900;2022-12-18T15:26:12;26.98;;;14.63;;
47603;SDS011;33326;51.116;6.900;2022-12-18T15:31:24;31.48;;;16.55;;
47603;SDS011;33326;51.116;6.900;2022-12-18T15:36:30;32.30;;;17.52;;
47603;SDS011;33326;51.116;6.900;2022-12-18T15:41:36;31.80;;;15.35;;
47603;SDS011;33326;51.116;6.900;2022-12-18T15:46:39;32.20;;;16.10;;
47603;SDS011;33326;51.116;6.900;2022-12-18T15:51:41;35.53;;;16.88;;
47603;SDS011;33326;51.116;6.900;2022-12-18T15:56:43;33.42;;;16.95;;
47603;SDS011;33326;51.116;6.900;2022-12-18T16:02:08;35.90;;;18.35;;
47603;SDS011;33326;51.116;6.900;2022-12-18T16:07:17;33.35;;;16.95;;
47603;SDS011;33326;51.116;6.900;2022-12-18T16:12:20;30.25;;;17.35;;
47603;SDS011;33326;51.116;6.900;2022-12-18T16:17:25;30.80;;;16.50;;
47603;SDS011;33326;51.116;6.900;2022-12-18T16:22:27;33.47;;;17.85;;
47603;SDS011;33326;51.116;6.900;2022-12-18T16:27:30;32.90;;;17.33;;
47603;SDS011;33326;51.116;6.900;2022-12-18T16:32:34;36.85;;;19.65;;
47603;SDS011;33326;51.116;6.900;2022-12-18T16:37:39;36.97;;;19.10;;
47603;SDS011;33326;51.116;6.900;2022-12-18T16:42:42;41.70;;;19.90;;
47603;SDS011;33326;51.116;6.900;2022-12-18T16:47:47;37.45;;;18.52;;
47603;SDS011;33326;51.116;6.900;2022-12-18T16:52:49;37.33;;;19.27;;
47603;SDS011;33326;51.116;6.900;2022-12-18T16:57:51;38.05;;;20.38;;
47603;SDS011;33326;51.116;6.900;2022-12-18T17:02:54;39.83;;;21.27;;
47603;SDS011;33326;51.116;6.900;2022-12-18T17:07:56;41.67;;;20.67;;
47603;SDS011;33326;51.116;6.900;2022-12-18T17:12:58;40.88;;;21.38;;
47603;SDS011;33326;51.116;6.900;2022-12-18T17:18:01;40.72;;;20.23;;
47603;SDS011;33326;51.116;6.900;2022-12-18T17:23:04;43.75;;;21.55;;
47603;SDS011;33326;51.116;6.900;2022-12-18T17:28:05;43.83;;;21.10;;
47603;SDS011;33326;51.116;6.900;2022-12-18T17:33:09;40.47;;;21.40;;
47603;SDS011;33326;51.116;6.900;2022-12-18T17:38:10;40.17;;;21.20;;
47603;SDS011;33326;51.116;6.900;2022-12-18T17:43:12;55.08;;;27.83;;
47603;SDS011;33326;51.116;6.900;2022-12-18T17:48:16;49.42;;;25.95;;
47603;SDS011;33326;51.116;6.900;2022-12-18T17:53:18;45.63;;;22.30;;
47603;SDS011;33326;51.116;6.900;2022-12-18T17:58:20;46.33;;;22.95;;
47603;SDS011;33326;51.116;6.900;2022-12-18T18:03:23;43.85;;;22.15;;
47603;SDS011;33326;51.116;6.900;2022-12-18T18:08:25;47.10;;;23.88;;
47603;SDS011;33326;51.116;6.900;2022-12-18T18:13:28;50.65;;;25.23;;
47603;SDS011;33326;51.116;6.900;2022-12-18T18:18:48;46.65;;;23.35;;
47603;SDS011;33326;51.116;6.900;2022-12-18T18:23:50;42.53;;;21.75;;
47603;SDS011;33326;51.116;6.900;2022-12-18T18:28:52;43.67;;;23.30;;
47603;SDS011;33326;51.116;6.900;2022-12-18T18:33:56;52.53;;;24.67;;
47603;SDS011;33326;51.116;6.900;2022-12-18T18:38:58;48.05;;;25.83;;
47603;SDS011;33326;51.116;6.900;2022-12-18T18:44:00;45.58;;;24.45;;
47603;SDS011;33326;51.116;6.900;2022-12-18T18:49:03;49.03;;;23.45;;
47603;SDS011;33326;51.116;6.900;2022-12-18T18:54:06;46.67;;;22.73;;
47603;SDS011;33326;51.116;6.900;2022-12-18T18:59:08;51.95;;;23.67;;
47603;SDS011;33326;51.116;6.900;2022-12-18T19:04:11;50.47;;;23.70;;
47603;SDS011;33326;51.116;6.900;2022-12-18T19:09:13;50.67;;;25.45;;
47603;SDS011;33326;51.116;6.900;2022-12-18T19:14:15;48.88;;;23.20;;
47603;SDS011;33326;51.116;6.900;2022-12-18T19:19:19;49.63;;;22.50;;
47603;SDS011;33326;51.116;6.900;2022-12-18T19:24:21;60.85;;;29.98;;
47603;SDS011;33326;51.116;6.900;2022-12-18T19:29:23;53.70;;;24.40;;
47603;SDS011;33326;51.116;6.900;2022-12-18T19:34:26;43.03;;;21.25;;
47603;SDS011;33326;51.116;6.900;2022-12-18T19:39:28;48.38;;;23.77;;
47603;SDS011;33326;51.116;6.900;2022-12-18T19:44:29;48.33;;;23.35;;
47603;SDS011;33326;51.116;6.900;2022-12-18T19:49:33;50.15;;;21.95;;
47603;SDS011;33326;51.116;6.900;2022-12-18T19:54:36;49.85;;;23.38;;
47603;SDS011;33326;51.116;6.900;2022-12-18T19:59:38;46.80;;;22.25;;
47603;SDS011;33326;51.116;6.900;2022-12-18T20:04:41;49.30;;;22.88;;
47603;SDS011;33326;51.116;6.900;2022-12-18T20:09:43;47.20;;;24.20;;
47603;SDS011;33326;51.116;6.900;2022-12-18T20:14:45;48.63;;;22.83;;
47603;SDS011;33326;51.116;6.900;2022-12-18T20:19:48;47.60;;;23.60;;
47603;SDS011;33326;51.116;6.900;2022-12-18T20:24:50;58.15;;;28.45;;
47603;SDS011;33326;51.116;6.900;2022-12-18T20:29:52;50.55;;;22.65;;
47603;SDS011;33326;51.116;6.900;2022-12-18T20:34:55;48.70;;;22.42;;
47603;SDS011;33326;51.116;6.900;2022-12-18T20:39:57;45.20;;;21.92;;
47603;SDS011;33326;51.116;6.900;2022-12-18T20:44:59;50.60;;;24.80;;
47603;SDS011;33326;51.116;6.900;2022-12-18T20:50:02;57.92;;;28.50;;
47603;SDS011;33326;51.116;6.900;2022-12-18T20:55:05;55.63;;;26.95;;
47603;SDS011;33326;51.116;6.900;2022-12-18T21:00:08;50.60;;;23.42;;
47603;SDS011;33326;51.116;6.900;2022-12-18T21:05:12;58.28;;;26.15;;
47603;SDS011;33326;51.116;6.900;2022-12-18T21:10:14;47.83;;;22.73;;
47603;SDS011;33326;51.116;6.900;2022-12-18T21:15:16;48.33;;;24.58;;
47603;SDS011;33326;51.116;6.900;2022-12-18T21:20:20;45.70;;;22.25;;
47603;SDS011;33326;51.116;6.900;2022-12-18T21:25:21;42.67;;;22.83;;
47603;SDS011;33326;51.116;6.900;2022-12-18T21:30:23;56.03;;;24.92;;
47603;SDS011;33326;51.116;6.900;2022-12-18T21:35:27;47.25;;;23.35;;
47603;SDS011;33326;51.116;6.900;2022-12-18T21:40:28;48.90;;;22.85;;
47603;SDS011;33326;51.116;6.900;2022-12-18T21:45:30;47.28;;;23.48;;
47603;SDS011;33326;51.116;6.900;2022-12-18T21:50:33;49.03;;;23.42;;
47603;SDS011;33326;51.116;6.900;2022-12-18T21:55:35;48.65;;;23.60;;
47603;SDS011;33326;51.116;6.900;2022-12-18T22:00:37;52.10;;;25.08;;
47603;SDS011;33326;51.116;6.900;2022-12-18T22:05:40;49.47;;;23.73;;
47603;SDS011;33326;51.116;6.900;2022-12-18T22:10:42;47.55;;;22.50;;
47603;SDS011;33326;51.116;6.900;2022-12-18T22:15:44;49.67;;;23.40;;
47603;SDS011;33326;51.116;6.900;2022-12-18T22:20:47;50.10;;;24.00;;
47603;SDS011;33326;51.116;6.900;2022-12-18T22:25:49;50.75;;;24.65;;
47603;SDS011;33326;51.116;6.900;2022-12-18T22:30:51;48.38;;;23.63;;
47603;SDS011;33326;51.116;6.900;2022-12-18T22:35:54;56.35;;;26.77;;
47603;SDS011;33326;51.116;6.900;2022-12-18T22:40:56;53.88;;;25.00;;
47603;SDS011;33326;51.116;6.900;2022-12-18T22:45:58;55.53;;;26.70;;
47603;SDS011;33326;51.116;6.900;2022-12-18T22:51:01;53.50;;;24.90;;
47603;SDS011;33326;51.116;6.900;2022-12-18T22:56:03;55.33;;;25.35;;
47603;SDS011;33326;51.116;6.900;2022-12-18T23:01:05;49.92;;;24.00;;
47603;SDS011;33326;51.116;6.900;2022-12-18T23:06:10;52.65;;;25.90;;
47603;SDS011;33326;51.116;6.900;2022-12-18T23:11:12;51.35;;;24.45;;
47603;SDS011;33326;51.116;6.900;2022-12-18T23:16:15;55.08;;;26.25;;
47603;SDS011;33326;51.116;6.900;2022-12-18T23:21:22;54.47;;;25.23;;
47603;SDS011;33326;51.116;6.900;2022-12-18T23:26:25;50.60;;;26.30;;
47603;SDS011;33326;51.116;6.900;2022-12-18T23:31:28;55.60;;;26.55;;
47603;SDS011;33326;51.116;6.900;2022-12-18T23:36:32;55.80;;;26.60;;
47603;SDS011;33326;51.116;6.900;2022-12-18T23:41:37;55.10;;;25.40;;
47603;SDS011;33326;51.116;6.900;2022-12-18T23:46:41;48.35;;;25.75;;
47603;SDS011;33326;51.116;6.900;2022-12-18T23:51:52;54.08;;;25.83;;
47603;SDS011;33326;51.116;6.900;2022-12-18T23:57:01;52.63;;;25.55;;
